sensor_id;sensor_type;location;lat;lon;timestamp;temperature;humidity
42145;DHT22;27813;43.516;11.890;2023-03-01T00:03:55;4.90;89.50
42145;DHT22;27813;43.516;11.890;2023-03-01T00:08:00;4.80;89.90
42145;DHT22;27813;43.516;11.890;2023-03-01T00:12:05;4.70;90.20
42145;DHT22;27813;43.516;11.890;2023-03-01T00:16:11;4.70;90.60
42145;DHT22;27813;43.516;11.890;2023-03-01T00:20:15;4.70;90.90
42145;DHT22;27813;43.516;11.890;2023-03-01T00:24:20;4.70;91.10
42145;DHT22;27813;43.516;11.890;2023-03-01T00:28:24;4.70;91.30
42145;DHT22;27813;43.516;11.890;2023-03-01T05:32:21;5.20;88.30
42145;DHT22;27813;43.516;11.890;2023-03-01T05:36:25;5.00;89.10
42145;DHT22;27813;43.516;11.890;2023-03-01T05:40:29;4.90;89.50
42145;DHT22;27813;43.516;11.890;2023-03-01T05:44:33;4.90;89.70
42145;DHT22;27813;43.516;11.890;2023-03-01T05:48:36;4.80;90.10
42145;DHT22;27813;43.516;11.890;2023-03-01T05:52:40;4.70;90.50
42145;DHT22;27813;43.516;11.890;2023-03-01T05:56:43;4.60;91.10
42145;DHT22;27813;43.516;11.890;2023-03-01T06:00:48;4.50;91.40
42145;DHT22;27813;43.516;11.890;2023-03-01T06:04:52;4.50;91.70
42145;DHT22;27813;43.516;11.890;2023-03-01T06:08:55;4.40;91.90
42145;DHT22;27813;43.516;11.890;2023-03-01T06:12:59;4.50;92.10
42145;DHT22;27813;43.516;11.890;2023-03-01T06:17:03;4.40;92.20
42145;DHT22;27813;43.516;11.890;2023-03-01T06:21:07;4.40;92.40
42145;DHT22;27813;43.516;11.890;2023-03-01T06:25:12;4.40;92.50
42145;DHT22;27813;43.516;11.890;2023-03-01T06:29:15;4.40;92.60
42145;DHT22;27813;43.516;11.890;2023-03-01T06:33:19;4.30;92.80
42145;DHT22;27813;43.516;11.890;2023-03-01T06:37:27;4.40;92.90
42145;DHT22;27813;43.516;11.890;2023-03-01T06:41:31;4.50;92.90
42145;DHT22;27813;43.516;11.890;2023-03-01T06:45:36;4.50;92.80
42145;DHT22;27813;43.516;11.890;2023-03-01T06:49:40;4.60;92.70
42145;DHT22;27813;43.516;11.890;2023-03-01T06:53:45;4.60;92.80
42145;DHT22;27813;43.516;11.890;2023-03-01T06:57:53;4.60;92.80
42145;DHT22;27813;43.516;11.890;2023-03-01T07:02:00;4.60;92.90
42145;DHT22;27813;43.516;11.890;2023-03-01T07:06:04;4.70;92.90
42145;DHT22;27813;43.516;11.890;2023-03-01T07:10:08;4.70;92.80
42145;DHT22;27813;43.516;11.890;2023-03-01T07:14:12;4.70;92.90
42145;DHT22;27813;43.516;11.890;2023-03-01T07:18:16;4.70;92.90
42145;DHT22;27813;43.516;11.890;2023-03-01T07:22:19;4.70;92.90
42145;DHT22;27813;43.516;11.890;2023-03-01T07:26:23;4.60;93.00
42145;DHT22;27813;43.516;11.890;2023-03-01T07:30:28;4.60;93.00
42145;DHT22;27813;43.516;11.890;2023-03-01T07:34:31;4.60;93.10
42145;DHT22;27813;43.516;11.890;2023-03-01T07:38:35;4.60;93.30
42145;DHT22;27813;43.516;11.890;2023-03-01T07:42:39;4.70;93.20
42145;DHT22;27813;43.516;11.890;2023-03-01T07:46:43;4.70;93.10
42145;DHT22;27813;43.516;11.890;2023-03-01T07:50:47;4.70;93.00
42145;DHT22;27813;43.516;11.890;2023-03-01T07:54:50;4.80;93.10
42145;DHT22;27813;43.516;11.890;2023-03-01T07:58:54;4.80;93.20
42145;DHT22;27813;43.516;11.890;2023-03-01T08:02:58;4.90;93.10
42145;DHT22;27813;43.516;11.890;2023-03-01T08:07:04;5.00;93.10
42145;DHT22;27813;43.516;11.890;2023-03-01T08:11:10;5.00;92.80
42145;DHT22;27813;43.516;11.890;2023-03-01T08:15:14;4.90;92.90
42145;DHT22;27813;43.516;11.890;2023-03-01T08:19:17;4.90;93.00
42145;DHT22;27813;43.516;11.890;2023-03-01T08:23:21;4.90;93.10
42145;DHT22;27813;43.516;11.890;2023-03-01T08:27:25;5.00;93.30
42145;DHT22;27813;43.516;11.890;2023-03-01T08:31:30;5.00;93.40
42145;DHT22;27813;43.516;11.890;2023-03-01T08:35:35;5.10;93.40
42145;DHT22;27813;43.516;11.890;2023-03-01T08:39:39;5.20;93.20
42145;DHT22;27813;43.516;11.890;2023-03-01T08:43:42;5.30;93.30
42145;DHT22;27813;43.516;11.890;2023-03-01T08:47:46;5.40;93.40
42145;DHT22;27813;43.516;11.890;2023-03-01T08:51:50;5.60;93.40
42145;DHT22;27813;43.516;11.890;2023-03-01T08:55:53;5.70;93.30
42145;DHT22;27813;43.516;11.890;2023-03-01T08:59:57;5.80;93.10
42145;DHT22;27813;43.516;11.890;2023-03-01T09:04:01;5.60;93.00
42145;DHT22;27813;43.516;11.890;2023-03-01T09:08:05;5.60;93.20
42145;DHT22;27813;43.516;11.890;2023-03-01T09:12:08;5.60;93.30
42145;DHT22;27813;43.516;11.890;2023-03-01T09:16:13;5.70;93.60
42145;DHT22;27813;43.516;11.890;2023-03-01T09:20:17;5.70;93.60
42145;DHT22;27813;43.516;11.890;2023-03-01T09:24:22;5.70;93.70
42145;DHT22;27813;43.516;11.890;2023-03-01T09:28:26;5.70;93.60
42145;DHT22;27813;43.516;11.890;2023-03-01T09:32:32;5.70;93.60
42145;DHT22;27813;43.516;11.890;2023-03-01T09:36:36;5.60;93.60
42145;DHT22;27813;43.516;11.890;2023-03-01T09:40:43;5.50;93.70
42145;DHT22;27813;43.516;11.890;2023-03-01T09:44:57;5.50;93.80
42145;DHT22;27813;43.516;11.890;2023-03-01T09:49:04;5.50;94.00
42145;DHT22;27813;43.516;11.890;2023-03-01T09:53:10;5.50;93.80
42145;DHT22;27813;43.516;11.890;2023-03-01T10:01:35;5.20;93.80
42145;DHT22;27813;43.516;11.890;2023-03-01T10:05:44;5.20;94.20
42145;DHT22;27813;43.516;11.890;2023-03-01T10:09:50;5.00;94.20
42145;DHT22;27813;43.516;11.890;2023-03-01T10:18:17;4.90;94.20
42145;DHT22;27813;43.516;11.890;2023-03-01T10:22:24;4.80;94.60
42145;DHT22;27813;43.516;11.890;2023-03-01T10:26:39;4.80;94.50
42145;DHT22;27813;43.516;11.890;2023-03-01T10:30:47;4.70;94.50
42145;DHT22;27813;43.516;11.890;2023-03-01T10:34:50;4.80;94.80
42145;DHT22;27813;43.516;11.890;2023-03-01T10:38:55;4.70;94.60
42145;DHT22;27813;43.516;11.890;2023-03-01T10:43:04;4.80;94.70
42145;DHT22;27813;43.516;11.890;2023-03-01T10:47:16;4.70;94.50
42145;DHT22;27813;43.516;11.890;2023-03-01T10:51:21;4.60;94.40
42145;DHT22;27813;43.516;11.890;2023-03-01T10:55:31;4.50;94.90
42145;DHT22;27813;43.516;11.890;2023-03-01T10:59:36;4.50;94.80
42145;DHT22;27813;43.516;11.890;2023-03-01T11:03:40;4.40;94.60
42145;DHT22;27813;43.516;11.890;2023-03-01T11:07:54;4.30;94.60
42145;DHT22;27813;43.516;11.890;2023-03-01T11:12:00;4.20;94.60
42145;DHT22;27813;43.516;11.890;2023-03-01T11:16:07;4.10;94.70
42145;DHT22;27813;43.516;11.890;2023-03-01T11:24:17;4.10;95.00
42145;DHT22;27813;43.516;11.890;2023-03-01T11:28:23;4.10;94.90
42145;DHT22;27813;43.516;11.890;2023-03-01T11:32:35;4.00;94.90
42145;DHT22;27813;43.516;11.890;2023-03-01T11:41:17;4.10;95.20
42145;DHT22;27813;43.516;11.890;2023-03-01T11:45:22;4.20;95.50
42145;DHT22;27813;43.516;11.890;2023-03-01T11:49:37;4.30;95.40
42145;DHT22;27813;43.516;11.890;2023-03-01T11:53:50;4.20;95.30
42145;DHT22;27813;43.516;11.890;2023-03-01T11:58:14;4.30;95.30
42145;DHT22;27813;43.516;11.890;2023-03-01T12:02:29;4.40;95.90
42145;DHT22;27813;43.516;11.890;2023-03-01T12:06:48;4.50;96.10
42145;DHT22;27813;43.516;11.890;2023-03-01T12:19:41;4.80;95.40
42145;DHT22;27813;43.516;11.890;2023-03-01T12:49:17;5.00;96.00
42145;DHT22;27813;43.516;11.890;2023-03-01T12:57:31;5.30;95.60
42145;DHT22;27813;43.516;11.890;2023-03-01T13:02:02;5.40;95.30
42145;DHT22;27813;43.516;11.890;2023-03-01T13:06:12;5.50;95.50
42145;DHT22;27813;43.516;11.890;2023-03-01T13:18:34;6.00;94.60
42145;DHT22;27813;43.516;11.890;2023-03-01T13:22:38;6.20;94.50
42145;DHT22;27813;43.516;11.890;2023-03-01T13:31:56;6.50;94.10
42145;DHT22;27813;43.516;11.890;2023-03-01T13:35:41;6.40;93.90
42145;DHT22;27813;43.516;11.890;2023-03-01T13:39:46;6.50;94.20
42145;DHT22;27813;43.516;11.890;2023-03-01T13:43:50;6.80;94.30
42145;DHT22;27813;43.516;11.890;2023-03-01T13:47:55;7.10;94.00
42145;DHT22;27813;43.516;11.890;2023-03-01T13:52:03;7.30;93.70
42145;DHT22;27813;43.516;11.890;2023-03-01T14:00:47;7.40;93.30
42145;DHT22;27813;43.516;11.890;2023-03-01T14:04:44;7.50;93.00
42145;DHT22;27813;43.516;11.890;2023-03-01T14:09:10;7.40;93.10
42145;DHT22;27813;43.516;11.890;2023-03-01T14:21:44;7.40;92.70
42145;DHT22;27813;43.516;11.890;2023-03-01T14:25:49;7.40;93.00
42145;DHT22;27813;43.516;11.890;2023-03-01T14:29:55;7.40;93.10
42145;DHT22;27813;43.516;11.890;2023-03-01T14:33:59;7.30;93.20
42145;DHT22;27813;43.516;11.890;2023-03-01T14:38:04;7.20;93.30
42145;DHT22;27813;43.516;11.890;2023-03-01T14:42:08;7.30;93.40
42145;DHT22;27813;43.516;11.890;2023-03-01T14:46:29;7.20;93.40
42145;DHT22;27813;43.516;11.890;2023-03-01T14:50:35;7.00;93.20
42145;DHT22;27813;43.516;11.890;2023-03-01T14:54:44;6.90;93.30
42145;DHT22;27813;43.516;11.890;2023-03-01T14:58:53;6.80;93.50
42145;DHT22;27813;43.516;11.890;2023-03-01T15:02:58;6.70;93.70
42145;DHT22;27813;43.516;11.890;2023-03-01T15:07:03;6.60;93.80
42145;DHT22;27813;43.516;11.890;2023-03-01T15:11:21;6.60;94.00
42145;DHT22;27813;43.516;11.890;2023-03-01T15:19:33;6.60;94.00
42145;DHT22;27813;43.516;11.890;2023-03-01T15:23:37;6.60;93.90
42145;DHT22;27813;43.516;11.890;2023-03-01T15:27:44;6.60;93.90
42145;DHT22;27813;43.516;11.890;2023-03-01T15:32:06;6.60;93.80
42145;DHT22;27813;43.516;11.890;2023-03-01T15:36:33;6.40;93.60
42145;DHT22;27813;43.516;11.890;2023-03-01T15:40:48;6.20;93.70
42145;DHT22;27813;43.516;11.890;2023-03-01T15:45:38;6.00;93.70
42145;DHT22;27813;43.516;11.890;2023-03-01T15:53:57;5.70;93.70
42145;DHT22;27813;43.516;11.890;2023-03-01T15:58:14;5.50;93.60
42145;DHT22;27813;43.516;11.890;2023-03-01T16:02:19;5.40;93.60
42145;DHT22;27813;43.516;11.890;2023-03-01T16:06:24;5.30;93.60
42145;DHT22;27813;43.516;11.890;2023-03-01T16:10:28;5.20;93.60
42145;DHT22;27813;43.516;11.890;2023-03-01T16:14:32;5.00;93.60
42145;DHT22;27813;43.516;11.890;2023-03-01T16:18:36;5.00;93.60
42145;DHT22;27813;43.516;11.890;2023-03-01T16:22:39;4.90;93.60
42145;DHT22;27813;43.516;11.890;2023-03-01T16:26:44;4.80;93.60
42145;DHT22;27813;43.516;11.890;2023-03-01T16:30:49;4.70;93.60
42145;DHT22;27813;43.516;11.890;2023-03-01T16:34:55;4.50;93.50
42145;DHT22;27813;43.516;11.890;2023-03-01T16:38:59;4.40;93.40
42145;DHT22;27813;43.516;11.890;2023-03-01T16:43:03;4.30;93.30
42145;DHT22;27813;43.516;11.890;2023-03-01T16:47:09;4.10;93.30
42145;DHT22;27813;43.516;11.890;2023-03-01T16:51:13;4.00;93.30
42145;DHT22;27813;43.516;11.890;2023-03-01T16:55:17;3.90;93.30
42145;DHT22;27813;43.516;11.890;2023-03-01T16:59:21;3.90;93.30
42145;DHT22;27813;43.516;11.890;2023-03-01T17:03:25;3.80;93.40
42145;DHT22;27813;43.516;11.890;2023-03-01T17:07:31;3.70;93.10
42145;DHT22;27813;43.516;11.890;2023-03-01T17:11:41;3.50;93.10
42145;DHT22;27813;43.516;11.890;2023-03-01T17:15:45;3.40;93.00
42145;DHT22;27813;43.516;11.890;2023-03-01T17:19:49;3.20;92.70
42145;DHT22;27813;43.516;11.890;2023-03-01T17:23:55;3.00;92.30
42145;DHT22;27813;43.516;11.890;2023-03-01T17:27:59;2.80;92.10
42145;DHT22;27813;43.516;11.890;2023-03-01T17:32:04;2.70;92.30
42145;DHT22;27813;43.516;11.890;2023-03-01T17:36:07;2.70;92.40
42145;DHT22;27813;43.516;11.890;2023-03-01T17:40:11;2.60;92.50
42145;DHT22;27813;43.516;11.890;2023-03-01T17:44:16;2.50;92.60
42145;DHT22;27813;43.516;11.890;2023-03-01T17:48:20;2.40;92.40
42145;DHT22;27813;43.516;11.890;2023-03-01T17:52:24;2.30;92.30
42145;DHT22;27813;43.516;11.890;2023-03-01T17:56:29;2.20;92.40
42145;DHT22;27813;43.516;11.890;2023-03-01T18:00:35;2.20;92.70
42145;DHT22;27813;43.516;11.890;2023-03-01T18:04:39;2.10;92.30
42145;DHT22;27813;43.516;11.890;2023-03-01T18:08:44;1.90;92.00
42145;DHT22;27813;43.516;11.890;2023-03-01T18:12:48;1.60;92.10
42145;DHT22;27813;43.516;11.890;2023-03-01T18:16:52;1.40;92.10
42145;DHT22;27813;43.516;11.890;2023-03-01T18:20:56;1.30;92.10
42145;DHT22;27813;43.516;11.890;2023-03-01T18:25:00;1.10;92.10
42145;DHT22;27813;43.516;11.890;2023-03-01T18:29:03;1.00;92.20
42145;DHT22;27813;43.516;11.890;2023-03-01T18:33:07;1.00;92.50
42145;DHT22;27813;43.516;11.890;2023-03-01T18:37:11;1.00;92.50
42145;DHT22;27813;43.516;11.890;2023-03-01T18:41:15;0.90;92.20
42145;DHT22;27813;43.516;11.890;2023-03-01T18:45:19;0.70;92.00
42145;DHT22;27813;43.516;11.890;2023-03-01T18:49:26;0.60;92.00
42145;DHT22;27813;43.516;11.890;2023-03-01T18:53:29;0.40;91.90
42145;DHT22;27813;43.516;11.890;2023-03-01T18:57:33;0.30;91.80
42145;DHT22;27813;43.516;11.890;2023-03-01T19:01:37;0.30;91.90
42145;DHT22;27813;43.516;11.890;2023-03-01T19:05:42;0.30;92.40
42145;DHT22;27813;43.516;11.890;2023-03-01T19:09:46;0.40;93.00
42145;DHT22;27813;43.516;11.890;2023-03-01T19:13:49;0.50;93.10
42145;DHT22;27813;43.516;11.890;2023-03-01T19:17:54;0.50;93.20
42145;DHT22;27813;43.516;11.890;2023-03-01T19:21:59;0.60;93.20
42145;DHT22;27813;43.516;11.890;2023-03-01T19:26:12;0.60;93.00
42145;DHT22;27813;43.516;11.890;2023-03-01T19:30:20;0.50;92.70
42145;DHT22;27813;43.516;11.890;2023-03-01T19:34:26;0.40;92.50
42145;DHT22;27813;43.516;11.890;2023-03-01T19:38:30;0.40;92.50
42145;DHT22;27813;43.516;11.890;2023-03-01T19:42:34;0.40;92.60
42145;DHT22;27813;43.516;11.890;2023-03-01T19:46:38;0.30;92.60
42145;DHT22;27813;43.516;11.890;2023-03-01T19:50:46;0.30;92.70
42145;DHT22;27813;43.516;11.890;2023-03-01T19:54:52;0.20;92.80
42145;DHT22;27813;43.516;11.890;2023-03-01T19:59:10;0.10;92.80
42145;DHT22;27813;43.516;11.890;2023-03-01T20:03:15;0.10;92.90
42145;DHT22;27813;43.516;11.890;2023-03-01T20:07:19;0.00;93.10
42145;DHT22;27813;43.516;11.890;2023-03-01T20:11:26;0.20;93.50
42145;DHT22;27813;43.516;11.890;2023-03-01T20:15:32;0.20;93.10
42145;DHT22;27813;43.516;11.890;2023-03-01T20:19:36;0.10;92.80
42145;DHT22;27813;43.516;11.890;2023-03-01T20:23:41;0.00;92.80
42145;DHT22;27813;43.516;11.890;2023-03-01T20:27:51;0.00;92.70
42145;DHT22;27813;43.516;11.890;2023-03-01T20:31:55;-3276.70;93.20
42145;DHT22;27813;43.516;11.890;2023-03-01T20:36:03;0.00;94.30
42145;DHT22;27813;43.516;11.890;2023-03-01T20:40:07;0.10;94.50
42145;DHT22;27813;43.516;11.890;2023-03-01T20:44:12;0.10;93.90
42145;DHT22;27813;43.516;11.890;2023-03-01T20:48:16;0.00;93.60
42145;DHT22;27813;43.516;11.890;2023-03-01T20:52:20;0.00;93.30
42145;DHT22;27813;43.516;11.890;2023-03-01T20:56:24;-3276.70;93.20
42145;DHT22;27813;43.516;11.890;2023-03-01T21:00:38;0.00;93.90
42145;DHT22;27813;43.516;11.890;2023-03-01T21:04:42;0.00;93.80
42145;DHT22;27813;43.516;11.890;2023-03-01T21:08:47;0.00;94.00
42145;DHT22;27813;43.516;11.890;2023-03-01T21:12:50;0.00;93.90
42145;DHT22;27813;43.516;11.890;2023-03-01T21:16:54;0.00;93.50
42145;DHT22;27813;43.516;11.890;2023-03-01T21:21:00;0.00;93.60
42145;DHT22;27813;43.516;11.890;2023-03-01T21:25:04;0.00;93.60
42145;DHT22;27813;43.516;11.890;2023-03-01T21:29:09;-3276.70;93.70
42145;DHT22;27813;43.516;11.890;2023-03-01T21:33:13;0.00;93.60
42145;DHT22;27813;43.516;11.890;2023-03-01T21:37:17;-3276.70;93.10
42145;DHT22;27813;43.516;11.890;2023-03-01T21:41:26;-3276.60;93.10
42145;DHT22;27813;43.516;11.890;2023-03-01T21:45:30;-3276.60;93.50
42145;DHT22;27813;43.516;11.890;2023-03-01T21:49:38;-3276.50;93.30
42145;DHT22;27813;43.516;11.890;2023-03-01T21:53:46;-3276.40;93.00
42145;DHT22;27813;43.516;11.890;2023-03-01T21:57:56;-3276.40;93.00
42145;DHT22;27813;43.516;11.890;2023-03-01T22:02:00;-3276.40;93.30
42145;DHT22;27813;43.516;11.890;2023-03-01T22:06:07;-3276.40;93.40
42145;DHT22;27813;43.516;11.890;2023-03-01T22:10:11;-3276.50;93.40
42145;DHT22;27813;43.516;11.890;2023-03-01T22:14:16;-3276.50;93.30
42145;DHT22;27813;43.516;11.890;2023-03-01T22:18:23;-3276.40;92.90
42145;DHT22;27813;43.516;11.890;2023-03-01T22:22:27;-3276.40;93.10
42145;DHT22;27813;43.516;11.890;2023-03-01T22:26:35;-3276.30;93.00
42145;DHT22;27813;43.516;11.890;2023-03-01T22:30:39;-3276.30;92.80
42145;DHT22;27813;43.516;11.890;2023-03-01T22:34:48;-3276.20;92.70
42145;DHT22;27813;43.516;11.890;2023-03-01T22:38:53;-3276.20;93.00
42145;DHT22;27813;43.516;11.890;2023-03-01T22:43:02;-3276.30;93.60
42145;DHT22;27813;43.516;11.890;2023-03-01T22:47:06;-3276.40;93.90
42145;DHT22;27813;43.516;11.890;2023-03-01T22:51:24;-3276.60;94.40
42145;DHT22;27813;43.516;11.890;2023-03-01T22:55:29;0.00;94.10
42145;DHT22;27813;43.516;11.890;2023-03-01T22:59:33;0.00;94.00
42145;DHT22;27813;43.516;11.890;2023-03-01T23:03:38;0.10;94.10
42145;DHT22;27813;43.516;11.890;2023-03-01T23:07:42;0.20;94.10
42145;DHT22;27813;43.516;11.890;2023-03-01T23:11:47;0.30;93.80
42145;DHT22;27813;43.516;11.890;2023-03-01T23:15:51;0.10;93.20
42145;DHT22;27813;43.516;11.890;2023-03-01T23:19:55;0.00;92.80
42145;DHT22;27813;43.516;11.890;2023-03-01T23:23:59;-3276.70;93.00
42145;DHT22;27813;43.516;11.890;2023-03-01T23:28:03;0.00;93.80
42145;DHT22;27813;43.516;11.890;2023-03-01T23:32:07;0.20;94.10
42145;DHT22;27813;43.516;11.890;2023-03-01T23:36:15;0.30;94.10
42145;DHT22;27813;43.516;11.890;2023-03-01T23:40:20;0.20;93.50
42145;DHT22;27813;43.516;11.890;2023-03-01T23:44:24;0.10;93.30
42145;DHT22;27813;43.516;11.890;2023-03-01T23:48:27;0.00;93.20
42145;DHT22;27813;43.516;11.890;2023-03-01T23:52:35;-3276.70;93.30
42145;DHT22;27813;43.516;11.890;2023-03-01T23:56:41;-3276.60;93.20
